ETWM

Meppe Airport

Germany
METAR ETWM 201420Z AUTO 23003KT 9999 // ////// 28/11 Q1012 ///
Observed Flight Rules
Jul-20 @ 14:20 UTC (13 minutes ago)
Wind Visibility
230° at 3 knots 10,000+ meters
Temperatures Readings
Current 28°C / 82°F
Dewpoint 11°C / 52°F
Humidity 35%
Altimeter 29.88" Hg
Pressure 1012 hPa
Elevation 21
METAR ETWM 201420Z AUTO 23003KT 9999 // ////// 28/11 Q1012 ///
Observed Flight Rules
Jul-20 @ 14:20 UTC
(13 minutes ago)
Wind Visibility
230° at 3 knots 10,000+ meters
Temperature Dewpoint
28°C / 82°F 11°C / 52°F
Humidity Altimeter Pressure
35% 29.88" Hg 1012 hPa